sensor_id;sensor_type;location;lat;lon;timestamp;temperature;humidity
36690;DHT22;22676;51.120;3.702;2024-01-25T00:00:55;23.60;47.60
36690;DHT22;22676;51.120;3.702;2024-01-25T00:03:21;23.60;47.60
36690;DHT22;22676;51.120;3.702;2024-01-25T00:05:47;23.60;47.60
36690;DHT22;22676;51.120;3.702;2024-01-25T00:08:13;23.50;47.60
36690;DHT22;22676;51.120;3.702;2024-01-25T00:10:39;23.50;47.60
36690;DHT22;22676;51.120;3.702;2024-01-25T00:13:04;23.50;47.60
36690;DHT22;22676;51.120;3.702;2024-01-25T00:15:30;23.50;48.20
36690;DHT22;22676;51.120;3.702;2024-01-25T00:17:56;23.50;47.70
36690;DHT22;22676;51.120;3.702;2024-01-25T00:20:22;23.40;47.60
36690;DHT22;22676;51.120;3.702;2024-01-25T00:22:48;23.50;47.60
36690;DHT22;22676;51.120;3.702;2024-01-25T00:25:13;23.50;47.60
36690;DHT22;22676;51.120;3.702;2024-01-25T00:27:39;23.40;47.60
36690;DHT22;22676;51.120;3.702;2024-01-25T00:30:05;23.40;47.60
36690;DHT22;22676;51.120;3.702;2024-01-25T00:32:31;23.50;47.60
36690;DHT22;22676;51.120;3.702;2024-01-25T00:34:57;23.40;47.60
36690;DHT22;22676;51.120;3.702;2024-01-25T00:37:22;23.40;47.60
36690;DHT22;22676;51.120;3.702;2024-01-25T00:39:48;23.40;47.60
36690;DHT22;22676;51.120;3.702;2024-01-25T00:42:16;23.40;47.60
36690;DHT22;22676;51.120;3.702;2024-01-25T00:44:42;23.40;47.60
36690;DHT22;22676;51.120;3.702;2024-01-25T00:47:08;23.40;48.10
36690;DHT22;22676;51.120;3.702;2024-01-25T00:49:35;23.50;47.60
36690;DHT22;22676;51.120;3.702;2024-01-25T00:52:03;23.50;47.40
36690;DHT22;22676;51.120;3.702;2024-01-25T00:54:29;23.50;47.50
36690;DHT22;22676;51.120;3.702;2024-01-25T00:56:55;23.50;47.50
36690;DHT22;22676;51.120;3.702;2024-01-25T00:59:21;23.40;47.60
36690;DHT22;22676;51.120;3.702;2024-01-25T01:01:47;23.40;47.60
36690;DHT22;22676;51.120;3.702;2024-01-25T01:04:14;23.40;47.60
36690;DHT22;22676;51.120;3.702;2024-01-25T01:06:40;23.40;47.60
36690;DHT22;22676;51.120;3.702;2024-01-25T01:09:06;23.40;47.70
36690;DHT22;22676;51.120;3.702;2024-01-25T01:11:33;23.40;47.60
36690;DHT22;22676;51.120;3.702;2024-01-25T01:13:58;23.40;47.60
36690;DHT22;22676;51.120;3.702;2024-01-25T01:16:24;23.40;47.60
36690;DHT22;22676;51.120;3.702;2024-01-25T01:18:49;23.40;47.60
36690;DHT22;22676;51.120;3.702;2024-01-25T01:21:15;23.40;47.60
36690;DHT22;22676;51.120;3.702;2024-01-25T01:23:41;23.40;47.60
36690;DHT22;22676;51.120;3.702;2024-01-25T01:26:07;23.30;47.60
36690;DHT22;22676;51.120;3.702;2024-01-25T01:28:33;23.30;47.50
36690;DHT22;22676;51.120;3.702;2024-01-25T01:30:58;23.30;47.50
36690;DHT22;22676;51.120;3.702;2024-01-25T01:33:24;23.30;47.40
36690;DHT22;22676;51.120;3.702;2024-01-25T01:35:49;23.30;47.50
36690;DHT22;22676;51.120;3.702;2024-01-25T01:38:15;23.30;47.60
36690;DHT22;22676;51.120;3.702;2024-01-25T01:40:41;23.30;47.50
36690;DHT22;22676;51.120;3.702;2024-01-25T01:43:06;23.30;47.50
36690;DHT22;22676;51.120;3.702;2024-01-25T01:45:32;23.30;47.40
36690;DHT22;22676;51.120;3.702;2024-01-25T01:47:59;23.30;47.60
36690;DHT22;22676;51.120;3.702;2024-01-25T01:50:25;23.30;47.50
36690;DHT22;22676;51.120;3.702;2024-01-25T01:52:51;23.30;47.50
36690;DHT22;22676;51.120;3.702;2024-01-25T01:55:17;23.30;47.40
36690;DHT22;22676;51.120;3.702;2024-01-25T01:57:44;23.30;47.50
36690;DHT22;22676;51.120;3.702;2024-01-25T02:00:11;23.30;47.50
36690;DHT22;22676;51.120;3.702;2024-01-25T02:02:39;23.30;47.40
36690;DHT22;22676;51.120;3.702;2024-01-25T02:05:05;23.30;47.40
36690;DHT22;22676;51.120;3.702;2024-01-25T02:07:31;23.30;47.30
36690;DHT22;22676;51.120;3.702;2024-01-25T02:09:57;23.30;47.30
36690;DHT22;22676;51.120;3.702;2024-01-25T02:12:22;23.40;47.50
36690;DHT22;22676;51.120;3.702;2024-01-25T02:14:48;23.40;47.30
36690;DHT22;22676;51.120;3.702;2024-01-25T02:17:14;23.30;48.00
36690;DHT22;22676;51.120;3.702;2024-01-25T02:19:39;23.30;47.90
36690;DHT22;22676;51.120;3.702;2024-01-25T02:22:05;23.30;47.80
36690;DHT22;22676;51.120;3.702;2024-01-25T02:24:31;23.30;47.70
36690;DHT22;22676;51.120;3.702;2024-01-25T02:26:57;23.20;48.10
36690;DHT22;22676;51.120;3.702;2024-01-25T02:29:22;23.20;48.40
36690;DHT22;22676;51.120;3.702;2024-01-25T02:31:48;23.20;48.70
36690;DHT22;22676;51.120;3.702;2024-01-25T02:34:14;23.30;48.40
36690;DHT22;22676;51.120;3.702;2024-01-25T02:36:39;23.20;48.10
36690;DHT22;22676;51.120;3.702;2024-01-25T02:39:05;23.20;48.00
36690;DHT22;22676;51.120;3.702;2024-01-25T02:41:31;23.20;48.00
36690;DHT22;22676;51.120;3.702;2024-01-25T02:43:57;23.20;48.00
36690;DHT22;22676;51.120;3.702;2024-01-25T02:46:23;23.20;48.10
36690;DHT22;22676;51.120;3.702;2024-01-25T02:48:49;23.20;48.50
36690;DHT22;22676;51.120;3.702;2024-01-25T02:51:15;23.20;48.50
36690;DHT22;22676;51.120;3.702;2024-01-25T02:53:40;23.20;48.50
36690;DHT22;22676;51.120;3.702;2024-01-25T02:56:06;23.20;48.20
36690;DHT22;22676;51.120;3.702;2024-01-25T02:58:32;23.20;48.10
36690;DHT22;22676;51.120;3.702;2024-01-25T03:00:58;23.20;48.10
36690;DHT22;22676;51.120;3.702;2024-01-25T03:03:24;23.10;48.00
36690;DHT22;22676;51.120;3.702;2024-01-25T03:05:51;23.10;48.00
36690;DHT22;22676;51.120;3.702;2024-01-25T03:08:17;23.10;47.70
36690;DHT22;22676;51.120;3.702;2024-01-25T03:10:43;23.10;47.70
36690;DHT22;22676;51.120;3.702;2024-01-25T03:13:08;23.10;47.60
36690;DHT22;22676;51.120;3.702;2024-01-25T03:15:34;23.10;47.80
36690;DHT22;22676;51.120;3.702;2024-01-25T03:17:59;23.10;47.80
36690;DHT22;22676;51.120;3.702;2024-01-25T03:20:25;23.10;47.70
36690;DHT22;22676;51.120;3.702;2024-01-25T03:22:51;23.10;47.60
36690;DHT22;22676;51.120;3.702;2024-01-25T03:25:16;23.10;47.60
36690;DHT22;22676;51.120;3.702;2024-01-25T03:27:42;23.10;47.70
36690;DHT22;22676;51.120;3.702;2024-01-25T03:30:08;23.10;47.70
36690;DHT22;22676;51.120;3.702;2024-01-25T03:32:34;23.10;48.30
36690;DHT22;22676;51.120;3.702;2024-01-25T03:34:59;23.10;47.60
36690;DHT22;22676;51.120;3.702;2024-01-25T03:37:25;23.10;47.50
36690;DHT22;22676;51.120;3.702;2024-01-25T03:39:51;23.10;47.30
36690;DHT22;22676;51.120;3.702;2024-01-25T03:42:17;23.10;47.40
36690;DHT22;22676;51.120;3.702;2024-01-25T03:44:42;23.10;47.40
36690;DHT22;22676;51.120;3.702;2024-01-25T03:47:10;23.10;47.40
36690;DHT22;22676;51.120;3.702;2024-01-25T03:49:36;23.10;47.50
36690;DHT22;22676;51.120;3.702;2024-01-25T03:52:05;23.10;47.40
36690;DHT22;22676;51.120;3.702;2024-01-25T03:54:31;23.10;47.40
36690;DHT22;22676;51.120;3.702;2024-01-25T03:56:57;23.10;47.50
36690;DHT22;22676;51.120;3.702;2024-01-25T03:59:22;23.10;47.50
36690;DHT22;22676;51.120;3.702;2024-01-25T04:01:48;23.00;47.40
36690;DHT22;22676;51.120;3.702;2024-01-25T04:04:15;23.00;47.30
36690;DHT22;22676;51.120;3.702;2024-01-25T04:06:44;23.10;47.30
36690;DHT22;22676;51.120;3.702;2024-01-25T04:09:13;23.10;47.10
36690;DHT22;22676;51.120;3.702;2024-01-25T04:11:40;23.10;47.10
36690;DHT22;22676;51.120;3.702;2024-01-25T04:14:06;23.10;47.10
36690;DHT22;22676;51.120;3.702;2024-01-25T04:16:32;23.10;47.10
36690;DHT22;22676;51.120;3.702;2024-01-25T04:18:58;23.00;47.20
36690;DHT22;22676;51.120;3.702;2024-01-25T04:21:24;23.00;47.20
36690;DHT22;22676;51.120;3.702;2024-01-25T04:23:49;23.00;47.10
36690;DHT22;22676;51.120;3.702;2024-01-25T04:26:15;23.00;47.30
36690;DHT22;22676;51.120;3.702;2024-01-25T04:28:42;22.90;47.30
36690;DHT22;22676;51.120;3.702;2024-01-25T04:31:08;22.90;47.40
36690;DHT22;22676;51.120;3.702;2024-01-25T04:33:33;22.80;47.30
36690;DHT22;22676;51.120;3.702;2024-01-25T04:35:59;22.80;47.40
36690;DHT22;22676;51.120;3.702;2024-01-25T04:38:25;22.70;47.50
36690;DHT22;22676;51.120;3.702;2024-01-25T04:40:50;22.70;47.50
36690;DHT22;22676;51.120;3.702;2024-01-25T04:43:16;22.60;47.60
36690;DHT22;22676;51.120;3.702;2024-01-25T04:45:41;22.60;47.70
36690;DHT22;22676;51.120;3.702;2024-01-25T04:48:07;22.50;47.70
36690;DHT22;22676;51.120;3.702;2024-01-25T04:50:33;22.50;47.80
36690;DHT22;22676;51.120;3.702;2024-01-25T04:53:01;22.50;47.90
36690;DHT22;22676;51.120;3.702;2024-01-25T04:55:27;22.40;47.80
36690;DHT22;22676;51.120;3.702;2024-01-25T04:57:53;22.40;47.90
36690;DHT22;22676;51.120;3.702;2024-01-25T05:00:20;22.30;47.80
36690;DHT22;22676;51.120;3.702;2024-01-25T05:02:47;22.30;48.10
36690;DHT22;22676;51.120;3.702;2024-01-25T05:05:13;22.30;48.10
36690;DHT22;22676;51.120;3.702;2024-01-25T05:07:38;22.30;48.20
36690;DHT22;22676;51.120;3.702;2024-01-25T05:10:05;22.30;48.80
36690;DHT22;22676;51.120;3.702;2024-01-25T05:12:30;22.20;48.20
36690;DHT22;22676;51.120;3.702;2024-01-25T05:14:56;22.20;48.20
36690;DHT22;22676;51.120;3.702;2024-01-25T05:17:21;22.20;48.20
36690;DHT22;22676;51.120;3.702;2024-01-25T05:19:47;22.10;48.20
36690;DHT22;22676;51.120;3.702;2024-01-25T05:22:13;22.10;48.20
36690;DHT22;22676;51.120;3.702;2024-01-25T05:24:38;22.10;48.30
36690;DHT22;22676;51.120;3.702;2024-01-25T05:27:04;22.10;48.30
36690;DHT22;22676;51.120;3.702;2024-01-25T05:29:30;22.00;48.30
36690;DHT22;22676;51.120;3.702;2024-01-25T05:31:55;22.00;48.20
36690;DHT22;22676;51.120;3.702;2024-01-25T05:34:21;22.00;48.30
36690;DHT22;22676;51.120;3.702;2024-01-25T05:36:47;22.00;48.40
36690;DHT22;22676;51.120;3.702;2024-01-25T05:39:13;22.10;48.40
36690;DHT22;22676;51.120;3.702;2024-01-25T05:41:39;22.10;48.20
36690;DHT22;22676;51.120;3.702;2024-01-25T05:44:05;22.20;48.00
36690;DHT22;22676;51.120;3.702;2024-01-25T05:46:30;22.30;47.70
36690;DHT22;22676;51.120;3.702;2024-01-25T05:48:56;22.40;47.60
36690;DHT22;22676;51.120;3.702;2024-01-25T05:51:21;22.50;47.50
36690;DHT22;22676;51.120;3.702;2024-01-25T05:53:47;22.60;47.40
36690;DHT22;22676;51.120;3.702;2024-01-25T05:56:13;22.60;47.40
36690;DHT22;22676;51.120;3.702;2024-01-25T05:58:38;22.80;47.30
36690;DHT22;22676;51.120;3.702;2024-01-25T06:01:04;22.80;47.30
36690;DHT22;22676;51.120;3.702;2024-01-25T06:03:30;22.90;47.10
36690;DHT22;22676;51.120;3.702;2024-01-25T06:05:55;23.00;47.00
36690;DHT22;22676;51.120;3.702;2024-01-25T06:08:21;23.10;46.90
36690;DHT22;22676;51.120;3.702;2024-01-25T06:10:47;23.10;46.80
36690;DHT22;22676;51.120;3.702;2024-01-25T06:13:12;23.20;46.60
36690;DHT22;22676;51.120;3.702;2024-01-25T06:15:38;23.20;46.50
36690;DHT22;22676;51.120;3.702;2024-01-25T06:18:04;23.30;46.70
36690;DHT22;22676;51.120;3.702;2024-01-25T06:20:30;23.30;46.40
36690;DHT22;22676;51.120;3.702;2024-01-25T06:22:55;23.30;46.30
36690;DHT22;22676;51.120;3.702;2024-01-25T06:25:21;23.40;46.10
36690;DHT22;22676;51.120;3.702;2024-01-25T06:27:47;23.50;46.00
36690;DHT22;22676;51.120;3.702;2024-01-25T06:30:14;23.50;46.00
36690;DHT22;22676;51.120;3.702;2024-01-25T06:32:39;23.60;46.00
36690;DHT22;22676;51.120;3.702;2024-01-25T06:35:06;23.50;46.20
36690;DHT22;22676;51.120;3.702;2024-01-25T06:37:31;23.50;45.90
36690;DHT22;22676;51.120;3.702;2024-01-25T06:39:57;23.60;45.80
36690;DHT22;22676;51.120;3.702;2024-01-25T06:42:22;23.60;45.60
36690;DHT22;22676;51.120;3.702;2024-01-25T06:44:48;23.70;45.40
36690;DHT22;22676;51.120;3.702;2024-01-25T06:47:14;23.70;45.20
36690;DHT22;22676;51.120;3.702;2024-01-25T06:49:39;23.70;45.00
36690;DHT22;22676;51.120;3.702;2024-01-25T06:52:05;23.70;44.80
36690;DHT22;22676;51.120;3.702;2024-01-25T06:54:31;23.70;44.80
36690;DHT22;22676;51.120;3.702;2024-01-25T06:56:57;23.70;44.60
36690;DHT22;22676;51.120;3.702;2024-01-25T06:59:22;23.70;44.80
36690;DHT22;22676;51.120;3.702;2024-01-25T07:01:49;23.50;44.00
36690;DHT22;22676;51.120;3.702;2024-01-25T07:04:14;23.40;44.10
36690;DHT22;22676;51.120;3.702;2024-01-25T07:06:40;23.20;43.90
36690;DHT22;22676;51.120;3.702;2024-01-25T07:09:06;23.10;44.10
36690;DHT22;22676;51.120;3.702;2024-01-25T07:11:32;23.00;44.00
36690;DHT22;22676;51.120;3.702;2024-01-25T07:13:58;23.00;44.30
36690;DHT22;22676;51.120;3.702;2024-01-25T07:16:23;23.00;44.40
36690;DHT22;22676;51.120;3.702;2024-01-25T07:18:49;23.00;44.90
36690;DHT22;22676;51.120;3.702;2024-01-25T07:21:15;23.00;44.50
36690;DHT22;22676;51.120;3.702;2024-01-25T07:23:41;23.00;44.50
36690;DHT22;22676;51.120;3.702;2024-01-25T07:26:06;23.00;44.70
36690;DHT22;22676;51.120;3.702;2024-01-25T07:28:32;23.00;44.70
36690;DHT22;22676;51.120;3.702;2024-01-25T07:30:57;23.00;44.70
36690;DHT22;22676;51.120;3.702;2024-01-25T07:33:23;22.90;44.70
36690;DHT22;22676;51.120;3.702;2024-01-25T07:35:49;22.90;45.30
36690;DHT22;22676;51.120;3.702;2024-01-25T07:38:15;22.90;44.90
36690;DHT22;22676;51.120;3.702;2024-01-25T07:40:41;22.80;44.90
36690;DHT22;22676;51.120;3.702;2024-01-25T07:43:06;22.80;45.00
36690;DHT22;22676;51.120;3.702;2024-01-25T07:45:32;22.80;45.10
36690;DHT22;22676;51.120;3.702;2024-01-25T07:47:58;22.80;45.10
36690;DHT22;22676;51.120;3.702;2024-01-25T07:50:24;22.70;45.20
36690;DHT22;22676;51.120;3.702;2024-01-25T07:52:49;22.70;45.30
36690;DHT22;22676;51.120;3.702;2024-01-25T07:55:18;22.70;45.90
36690;DHT22;22676;51.120;3.702;2024-01-25T07:57:43;22.70;45.40
36690;DHT22;22676;51.120;3.702;2024-01-25T08:00:09;22.60;45.30
36690;DHT22;22676;51.120;3.702;2024-01-25T08:02:38;22.60;45.40
36690;DHT22;22676;51.120;3.702;2024-01-25T08:05:05;22.60;45.40
36690;DHT22;22676;51.120;3.702;2024-01-25T08:07:31;22.60;45.60
36690;DHT22;22676;51.120;3.702;2024-01-25T08:09:57;22.60;45.60
36690;DHT22;22676;51.120;3.702;2024-01-25T08:12:26;22.60;45.70
36690;DHT22;22676;51.120;3.702;2024-01-25T08:14:52;22.50;44.80
36690;DHT22;22676;51.120;3.702;2024-01-25T08:17:18;22.40;44.30
36690;DHT22;22676;51.120;3.702;2024-01-25T08:19:45;22.30;44.90
36690;DHT22;22676;51.120;3.702;2024-01-25T08:22:11;22.30;45.60
36690;DHT22;22676;51.120;3.702;2024-01-25T08:24:39;22.20;45.70
36690;DHT22;22676;51.120;3.702;2024-01-25T08:27:05;22.20;45.80
36690;DHT22;22676;51.120;3.702;2024-01-25T08:29:33;22.20;45.90
36690;DHT22;22676;51.120;3.702;2024-01-25T08:31:58;22.20;45.70
36690;DHT22;22676;51.120;3.702;2024-01-25T08:34:24;22.20;46.00
36690;DHT22;22676;51.120;3.702;2024-01-25T08:36:49;22.20;46.10
36690;DHT22;22676;51.120;3.702;2024-01-25T08:39:15;22.20;46.80
36690;DHT22;22676;51.120;3.702;2024-01-25T08:41:42;22.10;46.70
36690;DHT22;22676;51.120;3.702;2024-01-25T08:44:08;22.10;46.80
36690;DHT22;22676;51.120;3.702;2024-01-25T08:46:33;22.20;46.90
36690;DHT22;22676;51.120;3.702;2024-01-25T08:48:59;22.10;46.70
36690;DHT22;22676;51.120;3.702;2024-01-25T08:51:24;22.10;46.60
36690;DHT22;22676;51.120;3.702;2024-01-25T08:53:50;22.00;46.70
36690;DHT22;22676;51.120;3.702;2024-01-25T08:56:16;22.00;47.50
36690;DHT22;22676;51.120;3.702;2024-01-25T08:58:42;22.00;47.40
36690;DHT22;22676;51.120;3.702;2024-01-25T09:01:08;22.10;48.10
36690;DHT22;22676;51.120;3.702;2024-01-25T09:03:33;22.20;49.50
36690;DHT22;22676;51.120;3.702;2024-01-25T09:05:59;22.20;51.00
36690;DHT22;22676;51.120;3.702;2024-01-25T09:08:30;22.20;49.50
36690;DHT22;22676;51.120;3.702;2024-01-25T09:10:56;22.20;49.90
36690;DHT22;22676;51.120;3.702;2024-01-25T09:13:22;22.20;49.60
36690;DHT22;22676;51.120;3.702;2024-01-25T09:15:47;22.30;49.70
36690;DHT22;22676;51.120;3.702;2024-01-25T09:18:13;22.40;49.60
36690;DHT22;22676;51.120;3.702;2024-01-25T09:20:39;22.40;49.10
36690;DHT22;22676;51.120;3.702;2024-01-25T09:23:06;22.40;48.90
36690;DHT22;22676;51.120;3.702;2024-01-25T09:25:31;22.30;48.60
36690;DHT22;22676;51.120;3.702;2024-01-25T09:27:57;22.30;48.80
36690;DHT22;22676;51.120;3.702;2024-01-25T09:30:23;22.30;48.80
36690;DHT22;22676;51.120;3.702;2024-01-25T09:32:49;22.40;48.50
36690;DHT22;22676;51.120;3.702;2024-01-25T09:35:14;22.40;48.10
36690;DHT22;22676;51.120;3.702;2024-01-25T09:37:40;22.40;47.90
36690;DHT22;22676;51.120;3.702;2024-01-25T09:40:06;22.40;47.80
36690;DHT22;22676;51.120;3.702;2024-01-25T09:42:32;22.40;48.00
36690;DHT22;22676;51.120;3.702;2024-01-25T09:44:57;22.40;48.10
36690;DHT22;22676;51.120;3.702;2024-01-25T09:47:23;22.40;47.80
36690;DHT22;22676;51.120;3.702;2024-01-25T09:49:49;22.40;47.50
36690;DHT22;22676;51.120;3.702;2024-01-25T09:52:16;22.50;47.50
36690;DHT22;22676;51.120;3.702;2024-01-25T09:54:45;22.50;47.90
36690;DHT22;22676;51.120;3.702;2024-01-25T09:57:15;22.40;47.30
36690;DHT22;22676;51.120;3.702;2024-01-25T09:59:43;22.50;47.60
36690;DHT22;22676;51.120;3.702;2024-01-25T10:02:10;22.50;47.40
36690;DHT22;22676;51.120;3.702;2024-01-25T10:04:36;22.60;47.50
36690;DHT22;22676;51.120;3.702;2024-01-25T10:07:01;22.60;47.40
36690;DHT22;22676;51.120;3.702;2024-01-25T10:09:27;22.50;47.50
36690;DHT22;22676;51.120;3.702;2024-01-25T10:11:53;22.50;47.40
36690;DHT22;22676;51.120;3.702;2024-01-25T10:14:18;22.50;47.50
36690;DHT22;22676;51.120;3.702;2024-01-25T10:16:45;22.50;47.50
36690;DHT22;22676;51.120;3.702;2024-01-25T10:19:12;22.60;47.40
36690;DHT22;22676;51.120;3.702;2024-01-25T10:21:37;22.60;47.20
36690;DHT22;22676;51.120;3.702;2024-01-25T10:24:05;22.60;47.10
36690;DHT22;22676;51.120;3.702;2024-01-25T10:26:31;22.60;47.50
36690;DHT22;22676;51.120;3.702;2024-01-25T10:28:57;22.50;47.30
36690;DHT22;22676;51.120;3.702;2024-01-25T10:31:24;22.40;47.40
36690;DHT22;22676;51.120;3.702;2024-01-25T10:33:53;22.50;47.50
36690;DHT22;22676;51.120;3.702;2024-01-25T10:36:21;22.50;48.20
36690;DHT22;22676;51.120;3.702;2024-01-25T10:38:48;22.50;47.40
36690;DHT22;22676;51.120;3.702;2024-01-25T10:41:15;22.40;47.20
36690;DHT22;22676;51.120;3.702;2024-01-25T10:43:40;22.40;47.30
36690;DHT22;22676;51.120;3.702;2024-01-25T10:46:07;22.40;47.40
36690;DHT22;22676;51.120;3.702;2024-01-25T10:48:34;22.50;47.50
36690;DHT22;22676;51.120;3.702;2024-01-25T10:51:01;22.50;47.50
36690;DHT22;22676;51.120;3.702;2024-01-25T10:53:32;22.50;47.40
36690;DHT22;22676;51.120;3.702;2024-01-25T10:55:59;22.60;47.50
36690;DHT22;22676;51.120;3.702;2024-01-25T10:58:33;22.60;47.10
36690;DHT22;22676;51.120;3.702;2024-01-25T11:01:01;22.60;47.10
36690;DHT22;22676;51.120;3.702;2024-01-25T11:03:29;22.60;47.20
36690;DHT22;22676;51.120;3.702;2024-01-25T11:06:09;22.60;47.20
36690;DHT22;22676;51.120;3.702;2024-01-25T11:08:35;22.80;47.10
36690;DHT22;22676;51.120;3.702;2024-01-25T11:11:09;22.80;47.00
36690;DHT22;22676;51.120;3.702;2024-01-25T11:13:38;22.80;46.90
36690;DHT22;22676;51.120;3.702;2024-01-25T11:16:18;22.80;46.80
36690;DHT22;22676;51.120;3.702;2024-01-25T11:18:51;22.80;47.00
36690;DHT22;22676;51.120;3.702;2024-01-25T11:21:29;22.80;46.90
36690;DHT22;22676;51.120;3.702;2024-01-25T11:24:04;22.80;46.80
36690;DHT22;22676;51.120;3.702;2024-01-25T11:26:33;22.80;46.50
36690;DHT22;22676;51.120;3.702;2024-01-25T11:28:59;22.80;46.60
36690;DHT22;22676;51.120;3.702;2024-01-25T11:31:27;22.80;46.70
36690;DHT22;22676;51.120;3.702;2024-01-25T11:33:58;22.80;46.80
36690;DHT22;22676;51.120;3.702;2024-01-25T11:36:25;22.80;46.80
36690;DHT22;22676;51.120;3.702;2024-01-25T11:38:51;22.80;46.80
36690;DHT22;22676;51.120;3.702;2024-01-25T11:41:16;22.90;46.60
36690;DHT22;22676;51.120;3.702;2024-01-25T11:43:42;22.80;46.50
36690;DHT22;22676;51.120;3.702;2024-01-25T11:46:08;22.80;46.50
36690;DHT22;22676;51.120;3.702;2024-01-25T11:48:33;22.80;46.60
36690;DHT22;22676;51.120;3.702;2024-01-25T11:51:00;22.80;46.80
36690;DHT22;22676;51.120;3.702;2024-01-25T11:53:25;22.90;46.70
36690;DHT22;22676;51.120;3.702;2024-01-25T11:55:52;22.90;46.60
36690;DHT22;22676;51.120;3.702;2024-01-25T11:58:18;22.90;46.70
36690;DHT22;22676;51.120;3.702;2024-01-25T12:00:44;22.80;46.50
36690;DHT22;22676;51.120;3.702;2024-01-25T12:03:10;22.80;46.70
36690;DHT22;22676;51.120;3.702;2024-01-25T12:05:36;22.80;46.80
36690;DHT22;22676;51.120;3.702;2024-01-25T12:08:12;22.80;46.70
36690;DHT22;22676;51.120;3.702;2024-01-25T12:10:38;22.90;46.70
36690;DHT22;22676;51.120;3.702;2024-01-25T12:13:09;22.90;46.60
36690;DHT22;22676;51.120;3.702;2024-01-25T12:15:35;22.80;46.50
36690;DHT22;22676;51.120;3.702;2024-01-25T12:18:01;22.80;46.50
36690;DHT22;22676;51.120;3.702;2024-01-25T12:20:28;22.80;46.70
36690;DHT22;22676;51.120;3.702;2024-01-25T12:22:54;22.80;46.90
36690;DHT22;22676;51.120;3.702;2024-01-25T12:25:20;22.80;46.80
36690;DHT22;22676;51.120;3.702;2024-01-25T12:27:47;22.80;46.70
36690;DHT22;22676;51.120;3.702;2024-01-25T12:30:15;22.80;46.70
36690;DHT22;22676;51.120;3.702;2024-01-25T12:32:40;22.80;47.30
36690;DHT22;22676;51.120;3.702;2024-01-25T12:35:06;22.80;47.70
36690;DHT22;22676;51.120;3.702;2024-01-25T12:37:34;22.70;47.00
36690;DHT22;22676;51.120;3.702;2024-01-25T12:40:00;22.70;47.00
36690;DHT22;22676;51.120;3.702;2024-01-25T12:42:25;22.60;46.90
36690;DHT22;22676;51.120;3.702;2024-01-25T12:44:53;22.60;47.00
36690;DHT22;22676;51.120;3.702;2024-01-25T12:47:22;22.60;47.10
36690;DHT22;22676;51.120;3.702;2024-01-25T12:49:47;22.60;47.80
36690;DHT22;22676;51.120;3.702;2024-01-25T12:52:14;22.50;47.20
36690;DHT22;22676;51.120;3.702;2024-01-25T12:54:41;22.50;47.20
36690;DHT22;22676;51.120;3.702;2024-01-25T12:57:07;22.50;47.20
36690;DHT22;22676;51.120;3.702;2024-01-25T12:59:36;22.50;47.30
36690;DHT22;22676;51.120;3.702;2024-01-25T13:02:04;22.40;47.40
36690;DHT22;22676;51.120;3.702;2024-01-25T13:04:30;22.40;47.40
36690;DHT22;22676;51.120;3.702;2024-01-25T13:06:56;22.40;47.50
36690;DHT22;22676;51.120;3.702;2024-01-25T13:09:25;22.30;47.50
36690;DHT22;22676;51.120;3.702;2024-01-25T13:11:50;22.40;47.60
36690;DHT22;22676;51.120;3.702;2024-01-25T13:14:19;22.30;47.50
36690;DHT22;22676;51.120;3.702;2024-01-25T13:16:45;22.30;47.60
36690;DHT22;22676;51.120;3.702;2024-01-25T13:19:11;22.30;47.60
36690;DHT22;22676;51.120;3.702;2024-01-25T13:21:37;22.30;47.60
36690;DHT22;22676;51.120;3.702;2024-01-25T13:24:03;22.20;47.60
36690;DHT22;22676;51.120;3.702;2024-01-25T13:26:29;22.20;47.60
36690;DHT22;22676;51.120;3.702;2024-01-25T13:28:54;22.20;47.70
36690;DHT22;22676;51.120;3.702;2024-01-25T13:31:20;22.20;47.70
36690;DHT22;22676;51.120;3.702;2024-01-25T13:33:46;22.30;47.60
36690;DHT22;22676;51.120;3.702;2024-01-25T13:36:12;22.30;47.40
36690;DHT22;22676;51.120;3.702;2024-01-25T13:38:40;22.40;47.40
36690;DHT22;22676;51.120;3.702;2024-01-25T13:41:06;22.40;47.30
36690;DHT22;22676;51.120;3.702;2024-01-25T13:43:31;22.50;47.80
36690;DHT22;22676;51.120;3.702;2024-01-25T13:45:57;22.60;47.10
36690;DHT22;22676;51.120;3.702;2024-01-25T13:48:23;22.70;46.90
36690;DHT22;22676;51.120;3.702;2024-01-25T13:50:49;22.70;46.70
36690;DHT22;22676;51.120;3.702;2024-01-25T13:53:14;22.80;46.60
36690;DHT22;22676;51.120;3.702;2024-01-25T13:55:40;22.90;46.50
36690;DHT22;22676;51.120;3.702;2024-01-25T13:58:05;22.90;46.30
36690;DHT22;22676;51.120;3.702;2024-01-25T14:00:31;23.00;46.30
36690;DHT22;22676;51.120;3.702;2024-01-25T14:02:57;23.00;46.20
36690;DHT22;22676;51.120;3.702;2024-01-25T14:05:22;23.10;46.10
36690;DHT22;22676;51.120;3.702;2024-01-25T14:07:48;23.20;46.10
36690;DHT22;22676;51.120;3.702;2024-01-25T14:10:15;23.20;45.90
36690;DHT22;22676;51.120;3.702;2024-01-25T14:12:41;23.30;45.90
36690;DHT22;22676;51.120;3.702;2024-01-25T14:15:07;23.30;45.80
36690;DHT22;22676;51.120;3.702;2024-01-25T14:17:32;23.40;45.80
36690;DHT22;22676;51.120;3.702;2024-01-25T14:19:58;23.40;45.60
36690;DHT22;22676;51.120;3.702;2024-01-25T14:22:24;23.50;45.60
36690;DHT22;22676;51.120;3.702;2024-01-25T14:24:49;23.60;45.60
36690;DHT22;22676;51.120;3.702;2024-01-25T14:27:15;23.60;45.50
36690;DHT22;22676;51.120;3.702;2024-01-25T14:29:41;23.70;45.40
36690;DHT22;22676;51.120;3.702;2024-01-25T14:32:06;23.70;45.20
36690;DHT22;22676;51.120;3.702;2024-01-25T14:34:32;23.80;45.20
36690;DHT22;22676;51.120;3.702;2024-01-25T14:36:58;23.90;45.10
36690;DHT22;22676;51.120;3.702;2024-01-25T14:39:24;23.90;45.00
36690;DHT22;22676;51.120;3.702;2024-01-25T14:41:49;23.90;44.90
36690;DHT22;22676;51.120;3.702;2024-01-25T14:44:15;24.00;44.90
36690;DHT22;22676;51.120;3.702;2024-01-25T14:46:40;24.00;44.70
36690;DHT22;22676;51.120;3.702;2024-01-25T14:49:06;24.00;44.90
36690;DHT22;22676;51.120;3.702;2024-01-25T14:51:32;23.90;44.90
36690;DHT22;22676;51.120;3.702;2024-01-25T14:53:57;23.90;45.00
36690;DHT22;22676;51.120;3.702;2024-01-25T14:56:23;23.80;45.10
36690;DHT22;22676;51.120;3.702;2024-01-25T14:58:48;23.80;45.30
36690;DHT22;22676;51.120;3.702;2024-01-25T15:01:15;23.70;45.30
36690;DHT22;22676;51.120;3.702;2024-01-25T15:03:46;23.60;45.40
36690;DHT22;22676;51.120;3.702;2024-01-25T15:06:13;23.60;45.50
36690;DHT22;22676;51.120;3.702;2024-01-25T15:08:39;23.50;45.50
36690;DHT22;22676;51.120;3.702;2024-01-25T15:11:05;23.50;45.60
36690;DHT22;22676;51.120;3.702;2024-01-25T15:13:31;23.50;45.70
36690;DHT22;22676;51.120;3.702;2024-01-25T15:15:57;23.40;45.70
36690;DHT22;22676;51.120;3.702;2024-01-25T15:18:22;23.40;45.80
36690;DHT22;22676;51.120;3.702;2024-01-25T15:20:49;23.40;45.90
36690;DHT22;22676;51.120;3.702;2024-01-25T15:23:16;23.30;45.90